Joven Daniel Segundo — EA8808 — position and weather

sailwx.info

Track history (hours):
 
Tides and Currents Weather Stations Pressure Air Temp Water Temp Dewpoint Dewpoint Depression Visibility Wind Speed Wind Dir Waves Ship Positions

Joven Daniel Segundo

Last reported at 2018-Feb-19 13:26 UTC. Time now 2018-Feb-21 01:56 UTC.
Position N 39°33' E 002°38'.

Length 21 m.

Type: Fishing. MMSI: 224189820.

Date/timePositionNaut miles runAvg speedWind from/ knotsBaromVisibWave heightAir tempDewpointWater temp
2018-Feb-19 13:26N 39°33' E 002°38'4 8.8
2018-Feb-19 13:00N 39°30' E 002°40'4 7.9
2018-Feb-19 12:30N 39°26' E 002°41'4 8.0
2018-Feb-19 12:00N 39°22' E 002°41'5 0.7
2018-Feb-19 04:38N 39°27' E 002°41'110.2
2018-Feb-19 04:30N 39°29' E 002°40'5 9.8
2018-Feb-19 04:00N 39°33' E 002°38'1 1.6
2018-Feb-19 03:30N 39°34' E 002°38'  
2018-Feb-15 13:09N 39°34' E 002°38'0 0.0
2018-Feb-15 12:58N 39°34' E 002°38'1 1.1
2018-Feb-15 12:29N 39°34' E 002°38'2 3.7
2018-Feb-15 12:00N 39°32' E 002°39'2 3.6
2018-Feb-15 11:30N 39°31' E 002°40'2 4.0
2018-Feb-15 11:00N 39°29' E 002°41'3 5.7
2018-Feb-15 10:30N 39°26' E 002°42'3 5.8
2018-Feb-15 10:00N 39°23' E 002°43'2 4.7
2018-Feb-15 09:30N 39°21' E 002°44'1 1.7
2018-Feb-15 09:00N 39°20' E 002°44'1 3.0
2018-Feb-15 08:31N 39°19' E 002°45'2 2.9
2018-Feb-15 07:54N 39°17' E 002°45'1 3.0
2018-Feb-15 07:24N 39°16' E 002°43'1 2.2
2018-Feb-15 06:57N 39°16' E 002°42'1 1.7
2018-Feb-15 06:25N 39°17' E 002°42'9 5.2
2018-Feb-15 04:46N 39°26' E 002°41'3 9.8
2018-Feb-15 04:30N 39°28' E 002°40'5 9.8
2018-Feb-15 04:00N 39°33' E 002°38'1 0.1
2018-Feb-14 15:57N 39°34' E 002°38'3 6.3
2018-Feb-14 15:30N 39°31' E 002°37'4 8.6
2018-Feb-14 15:00N 39°28' E 002°34'4 8.7
2018-Feb-14 14:30N 39°25' E 002°30'12 1.6
2018-Feb-14 07:01N 39°16' E 002°42'0 1.4
2018-Feb-14 07:00N 39°16' E 002°42'1 1.9
2018-Feb-14 06:30N 39°17' E 002°41'2 2.7
2018-Feb-14 05:57N 39°18' E 002°43'2 3.5
2018-Feb-14 05:30N 39°19' E 002°45'510.1
2018-Feb-14 05:00N 39°24' E 002°43'510.1
2018-Feb-14 04:30N 39°29' E 002°41'5 9.9
2018-Feb-14 04:00N 39°33' E 002°38'1 1.5
2018-Feb-14 03:30N 39°34' E 002°38'0 0.0
2018-Feb-13 16:20N 39°34' E 002°38'0 0.0
2018-Feb-13 16:00N 39°34' E 002°38'3 5.9
2018-Feb-13 15:30N 39°31' E 002°37'4 7.7
2018-Feb-13 15:00N 39°29' E 002°33'5 9.2
2018-Feb-13 14:29N 39°25' E 002°30'13 1.9
2018-Feb-13 07:30N 39°13' E 002°38'4 7.6
2018-Feb-13 06:58N 39°17' E 002°41'1 1.8
2018-Feb-13 06:29N 39°17' E 002°41'2 2.9
2018-Feb-13 05:40N 39°19' E 002°44'1 5.9
2018-Feb-13 05:30N 39°19' E 002°44'5 9.5
2018-Feb-13 05:00N 39°24' E 002°42'5 9.5
2018-Feb-13 04:30N 39°29' E 002°40'5 9.7
2018-Feb-13 04:00N 39°33' E 002°38'1 1.9
2018-Feb-13 03:30N 39°34' E 002°38'0 0.0
2018-Feb-12 16:02N 39°34' E 002°38'0 0.2
2018-Feb-12 16:00N 39°34' E 002°38'1 1.9
2018-Feb-12 15:30N 39°33' E 002°38'4 8.0
2018-Feb-12 15:00N 39°30' E 002°35'4 7.9
2018-Feb-12 14:30N 39°27' E 002°31'9 2.4
2018-Feb-12 10:55N 39°19' E 002°31'1 3.0
2018-Feb-12 10:30N 39°18' E 002°33'1 2.9
2018-Feb-12 09:59N 39°18' E 002°35'2 3.3
2018-Feb-12 09:24N 39°17' E 002°37'5 8.7
2018-Feb-12 08:53N 39°17' E 002°43'1 2.2
2018-Feb-12 08:30N 39°18' E 002°43'2 1.8
2018-Feb-12 07:06N 39°17' E 002°46'0 1.1
2018-Feb-12 06:57N 39°17' E 002°46'1 2.3
2018-Feb-12 06:30N 39°18' E 002°46'1 2.9
2018-Feb-12 06:00N 39°20' E 002°45'13 7.1
2018-Feb-12 04:08N 39°32' E 002°39'110.0
2018-Feb-12 04:00N 39°33' E 002°39'1 1.9
2018-Feb-12 03:30N 39°34' E 002°38'  
2018-Feb-09 14:00N 39°17' E 002°35'  
Track history (hours):
 
Tides and Currents Weather Stations Pressure Air Temp Water Temp Dewpoint Dewpoint Depression Visibility Wind Speed Wind Dir Waves Ship Positions

Joven Daniel Segundo

Last reported at 2018-Feb-19 13:26 UTC. Time now 2018-Feb-21 01:56 UTC.
Position N 39°33' E 002°38'.

Length 21 m.

Type: Fishing. MMSI: 224189820.

Date/timePositionNaut miles runAvg speedWind from/ knotsBaromVisibWave heightAir tempDewpointWater temp
2018-Feb-19 13:26N 39°33' E 002°38'4 8.8
2018-Feb-19 13:00N 39°30' E 002°40'4 7.9
2018-Feb-19 12:30N 39°26' E 002°41'4 8.0
2018-Feb-19 12:00N 39°22' E 002°41'5 0.7
2018-Feb-19 04:38N 39°27' E 002°41'110.2
2018-Feb-19 04:30N 39°29' E 002°40'5 9.8
2018-Feb-19 04:00N 39°33' E 002°38'1 1.6
2018-Feb-19 03:30N 39°34' E 002°38'  
2018-Feb-15 13:09N 39°34' E 002°38'0 0.0
2018-Feb-15 12:58N 39°34' E 002°38'1 1.1
2018-Feb-15 12:29N 39°34' E 002°38'2 3.7
2018-Feb-15 12:00N 39°32' E 002°39'2 3.6
2018-Feb-15 11:30N 39°31' E 002°40'2 4.0
2018-Feb-15 11:00N 39°29' E 002°41'3 5.7
2018-Feb-15 10:30N 39°26' E 002°42'3 5.8
2018-Feb-15 10:00N 39°23' E 002°43'2 4.7
2018-Feb-15 09:30N 39°21' E 002°44'1 1.7
2018-Feb-15 09:00N 39°20' E 002°44'1 3.0
2018-Feb-15 08:31N 39°19' E 002°45'2 2.9
2018-Feb-15 07:54N 39°17' E 002°45'1 3.0
2018-Feb-15 07:24N 39°16' E 002°43'1 2.2
2018-Feb-15 06:57N 39°16' E 002°42'1 1.7
2018-Feb-15 06:25N 39°17' E 002°42'9 5.2
2018-Feb-15 04:46N 39°26' E 002°41'3 9.8
2018-Feb-15 04:30N 39°28' E 002°40'5 9.8
2018-Feb-15 04:00N 39°33' E 002°38'1 0.1
2018-Feb-14 15:57N 39°34' E 002°38'3 6.3
2018-Feb-14 15:30N 39°31' E 002°37'4 8.6
2018-Feb-14 15:00N 39°28' E 002°34'4 8.7
2018-Feb-14 14:30N 39°25' E 002°30'12 1.6
2018-Feb-14 07:01N 39°16' E 002°42'0 1.4
2018-Feb-14 07:00N 39°16' E 002°42'1 1.9
2018-Feb-14 06:30N 39°17' E 002°41'2 2.7
2018-Feb-14 05:57N 39°18' E 002°43'2 3.5
2018-Feb-14 05:30N 39°19' E 002°45'510.1
2018-Feb-14 05:00N 39°24' E 002°43'510.1
2018-Feb-14 04:30N 39°29' E 002°41'5 9.9
2018-Feb-14 04:00N 39°33' E 002°38'1 1.5
2018-Feb-14 03:30N 39°34' E 002°38'0 0.0
2018-Feb-13 16:20N 39°34' E 002°38'0 0.0
2018-Feb-13 16:00N 39°34' E 002°38'3 5.9
2018-Feb-13 15:30N 39°31' E 002°37'4 7.7
2018-Feb-13 15:00N 39°29' E 002°33'5 9.2
2018-Feb-13 14:29N 39°25' E 002°30'13 1.9
2018-Feb-13 07:30N 39°13' E 002°38'4 7.6
2018-Feb-13 06:58N 39°17' E 002°41'1 1.8
2018-Feb-13 06:29N 39°17' E 002°41'2 2.9
2018-Feb-13 05:40N 39°19' E 002°44'1 5.9
2018-Feb-13 05:30N 39°19' E 002°44'5 9.5
2018-Feb-13 05:00N 39°24' E 002°42'5 9.5
2018-Feb-13 04:30N 39°29' E 002°40'5 9.7
2018-Feb-13 04:00N 39°33' E 002°38'1 1.9
2018-Feb-13 03:30N 39°34' E 002°38'0 0.0
2018-Feb-12 16:02N 39°34' E 002°38'0 0.2
2018-Feb-12 16:00N 39°34' E 002°38'1 1.9
2018-Feb-12 15:30N 39°33' E 002°38'4 8.0
2018-Feb-12 15:00N 39°30' E 002°35'4 7.9
2018-Feb-12 14:30N 39°27' E 002°31'9 2.4
2018-Feb-12 10:55N 39°19' E 002°31'1 3.0
2018-Feb-12 10:30N 39°18' E 002°33'1 2.9
2018-Feb-12 09:59N 39°18' E 002°35'2 3.3
2018-Feb-12 09:24N 39°17' E 002°37'5 8.7
2018-Feb-12 08:53N 39°17' E 002°43'1 2.2
2018-Feb-12 08:30N 39°18' E 002°43'2 1.8
2018-Feb-12 07:06N 39°17' E 002°46'0 1.1
2018-Feb-12 06:57N 39°17' E 002°46'1 2.3
2018-Feb-12 06:30N 39°18' E 002°46'1 2.9
2018-Feb-12 06:00N 39°20' E 002°45'13 7.1
2018-Feb-12 04:08N 39°32' E 002°39'110.0
2018-Feb-12 04:00N 39°33' E 002°39'1 1.9
2018-Feb-12 03:30N 39°34' E 002°38'  
2018-Feb-09 14:00N 39°17' E 002°35'  

Dump ship's entire track history